Time;durP1;ratioP1;P1;durP2;ratioP2;P2;SDS_P1;SDS_P2;PMS_P1;PMS_P2;Temp;Humidity;BMP_temperature;BMP_pressure;BME280_temperature;BME280_humidity;BME280_pressure;Samples;Min_cycle;Max_cycle;Signal;HPM_P1;HPM_P2
2022/04/19 00:00:04;;;;;;;2.83;1.83;;;;;;;4.31;100.00;93983.97;5032401;28;20644;-62
2022/04/19 00:02:30;;;;;;;0.87;0.87;;;;;;;4.42;100.00;93986.53;5032719;28;20296;-62
2022/04/19 00:04:58;;;;;;;1.67;0.93;;;;;;;4.44;100.00;93991.47;5032320;28;20256;-61
2022/04/19 00:07:24;;;;;;;0.90;0.90;;;;;;;4.33;100.00;93984.66;5032588;28;20197;-62
2022/04/19 00:09:49;;;;;;;2.60;1.13;;;;;;;4.52;100.00;93987.47;5032335;28;20245;-60
2022/04/19 00:12:15;;;;;;;2.07;1.10;;;;;;;4.57;100.00;93998.00;5032302;28;20553;-62
2022/04/19 00:14:40;;;;;;;0.93;0.90;;;;;;;4.50;100.00;93978.44;5032095;28;20206;-61
2022/04/19 00:17:06;;;;;;;0.80;0.80;;;;;;;4.47;100.00;93974.41;5031090;28;20206;-62
2022/04/19 00:19:31;;;;;;;1.30;1.20;;;;;;;4.64;100.00;93981.56;5032144;28;20176;-60
2022/04/19 00:21:57;;;;;;;2.23;1.30;;;;;;;4.59;100.00;93975.22;5032665;28;20543;-61
2022/04/19 00:24:22;;;;;;;1.70;1.20;;;;;;;4.51;100.00;93973.28;5032213;28;20265;-60
2022/04/19 00:26:48;;;;;;;1.33;1.23;;;;;;;4.55;100.00;93974.66;5032423;28;20204;-61
2022/04/19 00:29:13;;;;;;;1.40;1.30;;;;;;;4.49;100.00;93972.59;5032182;28;20213;-62
2022/04/19 00:31:38;;;;;;;1.13;1.03;;;;;;;4.43;100.00;93968.00;5031825;28;20217;-61
2022/04/19 00:34:04;;;;;;;1.30;1.20;;;;;;;4.41;100.00;93959.75;5031958;28;20719;-62
2022/04/19 00:36:29;;;;;;;2.07;1.97;;;;;;;4.46;100.00;93960.25;5032261;28;20255;-61
2022/04/19 00:38:55;;;;;;;1.50;1.13;;;;;;;4.49;100.00;93965.03;5030602;28;20238;-61
2022/04/19 00:41:20;;;;;;;1.20;1.10;;;;;;;4.43;100.00;93955.41;5031824;28;20559;-62
2022/04/19 00:43:46;;;;;;;1.37;1.27;;;;;;;4.45;100.00;93961.16;5031921;28;20170;-61
2022/04/19 00:46:11;;;;;;;1.33;1.23;;;;;;;4.31;100.00;93952.97;5032098;28;20561;-61
2022/04/19 00:48:37;;;;;;;1.53;1.13;;;;;;;4.26;100.00;93949.09;5031781;28;20206;-60
2022/04/19 00:51:04;;;;;;;1.37;0.90;;;;;;;4.23;100.00;93943.47;5030268;28;20193;-63
2022/04/19 00:53:30;;;;;;;1.20;1.13;;;;;;;4.30;100.00;93944.66;5031217;28;20223;-60
2022/04/19 00:55:55;;;;;;;1.10;1.00;;;;;;;4.22;100.00;93937.63;5031690;28;20188;-60
2022/04/19 00:58:21;;;;;;;1.20;1.10;;;;;;;4.36;100.00;93945.91;5031874;28;20198;-61
2022/04/19 01:00:50;;;;;;;0.93;0.93;;;;;;;4.24;100.00;93945.09;5031918;28;20189;-62
2022/04/19 01:03:15;;;;;;;1.10;1.00;;;;;;;4.22;100.00;93942.66;5031904;28;20339;-61
2022/04/19 01:05:45;;;;;;;1.13;1.00;;;;;;;4.15;100.00;93938.19;5032019;28;20270;-62
2022/04/19 01:08:11;;;;;;;1.00;1.00;;;;;;;4.23;100.00;93938.44;5031713;28;20218;-61
2022/04/19 01:10:37;;;;;;;1.53;1.27;;;;;;;4.18;100.00;93943.03;5031741;28;20190;-60
2022/04/19 01:13:18;;;;;;;1.03;1.03;;;;;;;4.22;100.00;93937.63;5030248;28;20802;-62
2022/04/19 01:15:50;;;;;;;1.30;1.20;;;;;;;4.16;100.00;93940.59;5032043;28;20275;-62
2022/04/19 01:18:20;;;;;;;0.93;0.80;;;;;;;4.42;100.00;93951.31;5031619;28;20196;-62
2022/04/19 01:20:48;;;;;;;1.23;1.13;;;;;;;4.02;100.00;93929.94;5031890;28;20175;-60
2022/04/19 01:23:14;;;;;;;3.27;1.03;;;;;;;4.26;100.00;93938.25;5031489;28;20201;-62
2022/04/19 01:25:40;;;;;;;1.13;1.03;;;;;;;4.17;100.00;93936.38;5031701;28;20265;-64
2022/04/19 01:28:06;;;;;;;1.10;1.10;;;;;;;4.06;100.00;93938.88;5031733;28;20203;-63
2022/04/19 01:30:35;;;;;;;1.27;1.17;;;;;;;4.13;100.00;93943.34;5031558;28;20223;-62
2022/04/19 01:33:02;;;;;;;0.80;0.80;;;;;;;4.12;100.00;93935.91;5034862;28;20212;-61
2022/04/19 01:35:28;;;;;;;1.20;1.10;;;;;;;4.17;100.00;93931.34;5035298;28;20545;-61
2022/04/19 01:37:54;;;;;;;1.30;1.07;;;;;;;4.23;100.00;93930.91;5035266;28;20260;-61
2022/04/19 01:40:19;;;;;;;1.33;1.23;;;;;;;4.40;100.00;93930.50;5035156;28;20191;-60
2022/04/19 01:42:45;;;;;;;1.07;1.00;;;;;;;4.39;100.00;93936.44;5035096;28;20195;-62
2022/04/19 01:45:16;;;;;;;1.07;1.07;;;;;;;4.29;100.00;93922.91;5035063;28;20191;-62
2022/04/19 01:47:43;;;;;;;1.40;1.30;;;;;;;4.28;100.00;93927.13;5035285;28;20230;-62
2022/04/19 01:50:10;;;;;;;1.40;1.23;;;;;;;4.19;100.00;93924.50;5041722;23;20225;-63
2022/04/19 01:52:39;;;;;;;1.57;1.40;;;;;;;4.12;100.00;93938.44;5034813;28;20206;-64
2022/04/19 01:55:07;;;;;;;2.10;1.63;;;;;;;4.15;100.00;93935.69;5034067;28;20645;-60
2022/04/19 01:57:33;;;;;;;1.60;1.50;;;;;;;4.19;100.00;93939.56;5033735;28;20205;-62
2022/04/19 01:59:59;;;;;;;2.13;1.80;;;;;;;4.17;100.00;93928.81;5035387;28;20186;-62
2022/04/19 02:02:25;;;;;;;1.83;1.70;;;;;;;4.22;100.00;93935.13;5034720;28;20253;-63
2022/04/19 02:04:50;;;;;;;1.60;1.50;;;;;;;4.15;100.00;93928.13;5035367;28;20190;-60
2022/04/19 02:07:16;;;;;;;4.27;1.63;;;;;;;4.25;100.00;93934.09;5034438;28;20671;-63
2022/04/19 02:09:42;;;;;;;2.00;1.90;;;;;;;4.27;100.00;93934.78;5033504;28;20193;-61
2022/04/19 02:12:08;;;;;;;1.97;1.77;;;;;;;4.22;100.00;93930.09;5034612;28;20212;-60
2022/04/19 02:14:33;;;;;;;2.10;1.90;;;;;;;4.22;100.00;93929.31;5033015;28;20185;-63
2022/04/19 02:16:58;;;;;;;1.90;1.77;;;;;;;4.26;100.00;93928.19;5034439;28;20195;-62
2022/04/19 02:19:24;;;;;;;2.80;1.63;;;;;;;4.36;100.00;93925.78;5034865;28;20182;-61
2022/04/19 02:21:49;;;;;;;2.27;1.70;;;;;;;4.25;100.00;93927.38;5034317;28;20273;-63
2022/04/19 02:24:15;;;;;;;1.63;1.53;;;;;;;4.15;100.00;93928.13;5034200;28;20244;-63
2022/04/19 02:26:40;;;;;;;2.10;1.90;;;;;;;4.12;100.00;93919.09;5034385;28;20602;-60
2022/04/19 02:29:06;;;;;;;1.77;1.63;;;;;;;4.11;100.00;93927.56;5034479;28;20185;-60
2022/04/19 02:31:31;;;;;;;1.90;1.33;;;;;;;4.37;100.00;93932.41;5032666;28;20208;-62
2022/04/19 02:33:58;;;;;;;2.70;1.97;;;;;;;4.21;100.00;93926.00;5034469;28;20215;-60
2022/04/19 02:36:25;;;;;;;1.87;1.63;;;;;;;4.13;100.00;93919.91;5032690;28;20178;-60
2022/04/19 02:38:50;;;;;;;1.80;1.70;;;;;;;4.29;100.00;93932.97;5034090;28;20280;-62
2022/04/19 02:41:16;;;;;;;1.60;1.50;;;;;;;4.23;100.00;93928.38;5033868;28;20264;-60
2022/04/19 02:43:41;;;;;;;1.70;1.60;;;;;;;4.22;100.00;93929.31;5033974;28;20194;-62
2022/04/19 02:46:07;;;;;;;3.00;1.70;;;;;;;4.22;100.00;93932.59;5033767;28;20273;-61
2022/04/19 02:48:32;;;;;;;1.80;1.70;;;;;;;4.11;100.00;93925.03;5034056;28;20204;-61
2022/04/19 02:50:57;;;;;;;1.73;1.50;;;;;;;4.21;100.00;93930.22;5033788;28;20170;-59
2022/04/19 02:53:23;;;;;;;1.67;1.57;;;;;;;4.27;100.00;93929.75;5032209;28;20769;-63
2022/04/19 02:55:48;;;;;;;2.23;1.73;;;;;;;4.40;100.00;93934.72;5033637;28;20185;-62
2022/04/19 02:58:14;;;;;;;2.10;1.90;;;;;;;4.37;100.00;93933.22;5033477;28;20210;-62
2022/04/19 03:00:40;;;;;;;2.13;2.00;;;;;;;4.29;100.00;93938.00;5033605;28;20673;-59
2022/04/19 03:03:09;;;;;;;1.87;1.67;;;;;;;4.37;100.00;93942.47;5033380;28;20196;-62
2022/04/19 03:05:38;;;;;;;2.03;1.50;;;;;;;4.32;100.00;93937.00;5032078;28;20706;-60
2022/04/19 03:08:04;;;;;;;3.93;2.00;;;;;;;4.18;100.00;93933.75;5032010;28;20697;-61
2022/04/19 03:10:29;;;;;;;2.20;2.00;;;;;;;4.09;100.00;93933.59;5033468;28;20570;-61
2022/04/19 03:12:54;;;;;;;2.30;2.10;;;;;;;4.08;100.00;93942.06;5033122;28;20262;-62
2022/04/19 03:15:20;;;;;;;1.93;1.83;;;;;;;4.22;100.00;93949.44;5033115;28;20215;-60
2022/04/19 03:17:46;;;;;;;2.73;2.30;;;;;;;4.07;100.00;93950.50;5033101;28;20202;-60
2022/04/19 03:20:11;;;;;;;2.50;1.97;;;;;;;4.25;100.00;93949.19;5033423;28;20195;-62
2022/04/19 03:28:06;;;;;;;3.50;2.17;;;;;;;4.14;100.00;93954.22;5033218;28;20208;-61
2022/04/19 03:30:31;;;;;;;2.30;2.10;;;;;;;4.25;100.00;93962.59;5033192;28;20265;-61
2022/04/19 03:32:59;;;;;;;3.00;2.67;;;;;;;4.11;100.00;93956.94;5032672;28;20207;-62
2022/04/19 03:35:25;;;;;;;3.33;2.83;;;;;;;4.07;100.00;93955.53;5033191;28;20547;-62
2022/04/19 03:37:50;;;;;;;3.20;2.90;;;;;;;4.31;100.00;93963.84;5031607;28;20215;-62
2022/04/19 03:40:16;;;;;;;4.40;2.70;;;;;;;4.28;100.00;93959.06;5032806;28;20241;-62
2022/04/19 03:42:42;;;;;;;2.60;2.37;;;;;;;4.46;100.00;93975.34;5032765;28;20199;-62
2022/04/19 03:45:11;;;;;;;3.57;2.27;;;;;;;4.21;100.00;93957.88;5033264;28;20215;-61
2022/04/19 03:47:37;;;;;;;3.43;2.83;;;;;;;4.16;100.00;93964.97;5032526;28;20203;-65
2022/04/19 03:50:04;;;;;;;3.13;2.77;;;;;;;4.04;100.00;93965.81;5031245;28;20200;-62
2022/04/19 03:52:31;;;;;;;3.17;2.80;;;;;;;4.09;100.00;93971.31;5032527;28;20565;-62
2022/04/19 03:54:57;;;;;;;2.60;2.40;;;;;;;4.08;100.00;93969.72;5032674;28;20239;-61
2022/04/19 03:57:25;;;;;;;2.97;2.67;;;;;;;4.21;100.00;93978.81;5031302;28;20212;-63
2022/04/19 03:59:52;;;;;;;4.93;3.13;;;;;;;4.20;100.00;93981.44;5033161;28;20217;-64
2022/04/19 04:02:17;;;;;;;5.43;3.13;;;;;;;4.33;100.00;93987.19;5032314;28;20200;-63
2022/04/19 04:04:43;;;;;;;4.07;3.60;;;;;;;4.31;100.00;93993.22;5032863;28;20212;-62
2022/04/19 04:07:09;;;;;;;4.30;3.70;;;;;;;4.17;100.00;93994.22;5032549;28;20204;-62
2022/04/19 04:09:37;;;;;;;4.93;3.33;;;;;;;4.29;100.00;93988.31;5031285;28;20202;-61
2022/04/19 04:12:13;;;;;;;5.10;3.60;;;;;;;4.42;100.00;93996.59;5032042;28;20224;-62
2022/04/19 04:14:40;;;;;;;4.93;3.90;;;;;;;4.13;100.00;93985.28;5031126;28;20303;-63
2022/04/19 04:17:06;;;;;;;4.60;3.60;;;;;;;4.12;100.00;93991.22;5030936;28;20204;-63
2022/04/19 04:19:31;;;;;;;4.13;3.20;;;;;;;4.17;100.00;93996.72;5032647;28;20191;-62
2022/04/19 04:21:57;;;;;;;4.23;3.20;;;;;;;4.16;100.00;93990.88;5039306;23;20226;-64
2022/04/19 04:24:22;;;;;;;4.83;3.83;;;;;;;4.18;100.00;93990.81;5031952;28;20207;-61
2022/04/19 04:26:48;;;;;;;3.50;3.20;;;;;;;4.17;100.00;93991.69;5032343;28;20206;-62
2022/04/19 04:29:13;;;;;;;3.93;3.40;;;;;;;4.26;100.00;93998.59;5032003;28;20182;-63
2022/04/19 04:31:40;;;;;;;4.70;3.70;;;;;;;4.22;100.00;94002.25;5031465;28;20272;-62
2022/04/19 04:34:06;;;;;;;3.70;2.93;;;;;;;4.19;100.00;93999.94;5031941;28;20176;-62
2022/04/19 04:36:32;;;;;;;4.13;3.53;;;;;;;4.41;100.00;94006.75;5031856;28;20252;-63
2022/04/19 04:38:58;;;;;;;4.30;3.27;;;;;;;4.59;100.00;94013.78;5031917;28;20615;-64
2022/04/19 04:41:23;;;;;;;3.33;2.90;;;;;;;4.57;100.00;94015.63;5031913;28;20507;-64
2022/04/19 04:43:48;;;;;;;6.23;3.90;;;;;;;4.43;100.00;94013.28;5030697;28;20187;-61
2022/04/19 04:51:42;;;;;;;4.50;3.30;;;;;;;4.25;100.00;94007.84;5032254;28;20217;-63
2022/04/19 04:54:07;;;;;;;3.00;2.70;;;;;;;4.49;100.00;94030.47;5030519;28;20188;-62
2022/04/19 04:56:33;;;;;;;2.57;2.30;;;;;;;4.46;100.00;94019.81;5031843;28;20202;-61
2022/04/19 04:58:59;;;;;;;2.33;2.10;;;;;;;4.34;100.00;94015.66;5030452;28;20179;-61
2022/04/19 05:01:25;;;;;;;8.73;2.90;;;;;;;4.40;100.00;94018.56;5031634;28;20180;-63
2022/04/19 05:03:51;;;;;;;3.07;2.70;;;;;;;4.49;100.00;94022.09;5031458;28;20184;-62
2022/04/19 05:06:16;;;;;;;4.03;3.10;;;;;;;4.52;100.00;94017.69;5032467;28;20319;-64
2022/04/19 05:08:41;;;;;;;3.80;3.43;;;;;;;4.57;100.00;94025.69;5035675;28;20195;-61
2022/04/19 05:11:07;;;;;;;4.67;4.10;;;;;;;4.58;100.00;94022.28;5035687;28;20174;-62
2022/04/19 05:13:32;;;;;;;6.03;3.87;;;;;;;4.57;100.00;94017.31;5035350;28;20306;-64
2022/04/19 05:15:58;;;;;;;6.97;3.80;;;;;;;4.67;100.00;94011.53;5035460;28;20180;-63
2022/04/19 05:18:24;;;;;;;4.77;4.27;;;;;;;4.90;100.00;94025.78;5042156;23;20222;-63
2022/04/19 05:20:50;;;;;;;4.20;3.70;;;;;;;4.83;100.00;94022.09;5035286;28;20191;-63
2022/04/19 05:23:15;;;;;;;3.93;3.63;;;;;;;4.97;100.00;94019.38;5035345;28;20200;-62
2022/04/19 05:25:41;;;;;;;4.73;4.23;;;;;;;5.19;100.00;94027.88;5035184;28;20176;-64
2022/04/19 05:28:06;;;;;;;7.07;4.63;;;;;;;5.04;100.00;94030.63;5034193;28;20256;-64
2022/04/19 05:30:32;;;;;;;5.47;4.40;;;;;;;5.03;100.00;94041.59;5035143;28;20212;-63
2022/04/19 05:32:58;;;;;;;7.20;4.37;;;;;;;4.95;100.00;94038.81;5035712;28;20681;-60
2022/04/19 05:35:23;;;;;;;5.63;3.63;;;;;;;5.10;100.00;94040.25;5035157;28;20268;-64
2022/04/19 05:37:55;;;;;;;4.07;3.67;;;;;;;5.22;100.00;94037.72;5035695;28;20690;-64
2022/04/19 05:40:21;;;;;;;4.20;3.50;;;;;;;5.45;100.00;94045.19;5034992;28;20603;-62
2022/04/19 05:42:47;;;;;;;3.37;3.07;;;;;;;5.67;100.00;94075.44;5035305;28;20198;-62
2022/04/19 05:45:13;;;;;;;4.77;3.90;;;;;;;5.71;100.00;94049.06;5033726;28;20623;-62
2022/04/19 05:47:39;;;;;;;4.07;3.67;;;;;;;5.68;100.00;94049.28;5035343;28;20534;-59
2022/04/19 05:50:05;;;;;;;4.77;3.90;;;;;;;5.57;100.00;94043.47;5033471;28;20194;-60
2022/04/19 05:52:30;;;;;;;3.93;3.40;;;;;;;5.50;100.00;94028.00;5035009;28;20225;-61
2022/04/19 05:54:56;;;;;;;5.23;3.90;;;;;;;4.96;100.00;94053.03;5034590;28;20182;-61
2022/04/19 05:57:21;;;;;;;4.70;4.10;;;;;;;4.88;100.00;94060.34;5034988;28;20226;-61
2022/04/19 05:59:47;;;;;;;5.53;4.40;;;;;;;5.32;100.00;94081.47;5034730;28;20561;-63
2022/04/19 06:04:58;;;;;;;6.07;4.90;;;;;;;5.24;100.00;94051.00;5034865;28;20180;-63
2022/04/19 06:07:25;;;;;;;6.00;5.13;;;;;;;5.18;100.00;94057.31;5035086;28;20248;-61
2022/04/19 06:09:50;;;;;;;5.90;5.13;;;;;;;4.98;100.00;94045.38;5034593;28;20681;-62
2022/04/19 06:12:16;;;;;;;7.67;6.00;;;;;;;4.87;100.00;94052.88;5034706;28;20220;-62
2022/04/19 06:14:41;;;;;;;9.67;6.80;;;;;;;4.91;100.00;94054.25;5034472;28;20193;-62
2022/04/19 06:17:07;;;;;;;6.50;5.70;;;;;;;4.75;100.00;94039.47;5034080;28;20239;-63
2022/04/19 06:19:32;;;;;;;7.93;6.17;;;;;;;4.74;100.00;94047.94;5034493;28;20184;-64
2022/04/19 06:21:59;;;;;;;11.03;6.93;;;;;;;4.71;100.00;94054.91;5034200;28;20625;-63
2022/04/19 06:24:25;;;;;;;8.50;7.30;;;;;;;4.62;100.00;94048.00;5034142;28;20243;-61
2022/04/19 06:26:51;;;;;;;12.90;8.67;;;;;;;4.17;100.00;94050.34;5034237;28;20209;-62
2022/04/19 06:29:17;;;;;;;13.53;7.77;;;;;;;3.93;100.00;94059.59;5034431;28;20233;-63
2022/04/19 06:31:46;;;;;;;10.90;7.90;;;;;;;4.07;100.00;94053.59;5033977;28;20203;-61
2022/04/19 06:34:12;;;;;;;10.63;8.23;;;;;;;4.11;100.00;94060.03;5034060;28;20556;-61
2022/04/19 06:36:38;;;;;;;10.43;7.57;;;;;;;3.74;100.00;94055.91;5034197;28;20209;-60
2022/04/19 06:39:03;;;;;;;12.33;8.10;;;;;;;3.64;100.00;94065.78;5033916;28;20185;-62
2022/04/19 06:41:29;;;;;;;13.67;9.10;;;;;;;3.40;100.00;94063.22;5032517;28;20198;-61
2022/04/19 06:43:57;;;;;;;10.77;7.77;;;;;;;3.50;100.00;94065.91;5033938;28;20178;-63
2022/04/19 06:46:24;;;;;;;13.83;9.30;;;;;;;3.41;100.00;94074.84;5033754;28;20659;-63
2022/04/19 06:48:50;;;;;;;14.63;10.03;;;;;;;3.32;100.00;94072.97;5033977;28;20243;-61
2022/04/19 06:51:16;;;;;;;13.60;9.03;;;;;;;3.63;100.00;94073.44;5033691;28;20186;-62
2022/04/19 06:53:41;;;;;;;12.87;9.33;;;;;;;4.14;100.00;94067.38;5032363;28;20344;-62
2022/04/19 06:56:07;;;;;;;15.03;9.43;;;;;;;4.49;100.00;94073.25;5032156;28;20176;-62
2022/04/19 06:58:32;;;;;;;11.87;8.73;;;;;;;4.71;100.00;94065.78;5033524;28;20178;-62
2022/04/19 07:00:58;;;;;;;11.03;7.90;;;;;;;5.02;100.00;94072.75;5033497;28;20173;-61
2022/04/19 07:03:26;;;;;;;8.73;7.53;;;;;;;5.26;100.00;94072.66;5033537;28;20223;-63
2022/04/19 07:05:52;;;;;;;13.03;7.17;;;;;;;5.38;100.00;94083.53;5033248;28;20632;-63
2022/04/19 07:08:17;;;;;;;11.20;7.47;;;;;;;5.27;100.00;94068.44;5033516;28;20198;-63
2022/04/19 07:10:43;;;;;;;9.50;7.27;;;;;;;5.50;100.00;94087.69;5033362;28;20176;-64
2022/04/19 07:13:10;;;;;;;8.00;6.37;;;;;;;5.19;100.00;94084.09;5033678;28;20232;-60
2022/04/19 07:15:36;;;;;;;8.03;6.33;;;;;;;4.92;100.00;94074.31;5032222;28;20208;-61
2022/04/19 07:18:01;;;;;;;8.87;6.30;;;;;;;5.26;100.00;94080.22;5033817;28;20212;-63
2022/04/19 07:28:39;;;;;;;5.53;4.50;;;;;;;4.33;100.00;94080.25;5032831;28;20176;-60
2022/04/19 07:31:05;;;;;;;6.20;4.37;;;;;;;4.06;100.00;94079.66;5031306;28;20180;-62
2022/04/19 07:33:31;;;;;;;7.17;3.93;;;;;;;4.10;100.00;94076.03;5032828;28;20207;-65
2022/04/19 07:35:57;;;;;;;5.10;3.77;;;;;;;4.14;100.00;94083.25;5033110;28;20191;-63
2022/04/19 07:38:23;;;;;;;3.87;2.80;;;;;;;4.04;100.00;94089.03;5031957;28;20198;-60
2022/04/19 07:40:49;;;;;;;3.30;2.90;;;;;;;4.07;100.00;94081.25;5032947;28;20567;-62
2022/04/19 07:43:15;;;;;;;4.60;3.43;;;;;;;4.41;100.00;94085.56;5032814;28;20204;-60
2022/04/19 07:45:40;;;;;;;5.47;3.07;;;;;;;4.51;100.00;94084.00;5031469;28;20547;-62
2022/04/19 07:48:06;;;;;;;4.60;3.20;;;;;;;4.84;100.00;94085.84;5030971;28;20216;-63
2022/04/19 07:50:34;;;;;;;3.77;2.67;;;;;;;4.99;100.00;94089.75;5032578;28;20177;-63
2022/04/19 07:53:00;;;;;;;2.97;2.63;;;;;;;5.24;100.00;94097.16;5032893;28;20217;-63
2022/04/19 07:55:27;;;;;;;2.10;1.90;;;;;;;5.30;100.00;94111.81;5032261;28;20568;-62
2022/04/19 07:57:53;;;;;;;2.67;2.30;;;;;;;5.29;100.00;94089.28;5030957;28;20609;-61
2022/04/19 08:00:19;;;;;;;2.97;2.30;;;;;;;5.25;100.00;94103.00;5032296;28;20181;-62
2022/04/19 08:02:45;;;;;;;3.60;2.57;;;;;;;4.80;100.00;94089.50;5014809;28;20209;-61
2022/04/19 08:05:11;;;;;;;4.40;3.10;;;;;;;4.58;100.00;94095.25;5032508;28;20559;-61
2022/04/19 08:07:36;;;;;;;4.63;3.30;;;;;;;4.49;100.00;94100.91;5032736;28;20644;-63
2022/04/19 08:10:02;;;;;;;3.57;2.83;;;;;;;4.49;100.00;94097.59;5032321;28;20195;-62
2022/04/19 08:12:28;;;;;;;4.73;3.43;;;;;;;4.63;100.00;94098.22;5032475;28;20216;-62
2022/04/19 08:14:55;;;;;;;5.73;3.53;;;;;;;4.88;100.00;94099.81;5032448;28;20202;-62
2022/04/19 08:17:21;;;;;;;4.00;3.13;;;;;;;4.92;100.00;94126.38;5032423;28;20210;-62
2022/04/19 08:19:46;;;;;;;6.40;3.90;;;;;;;4.76;100.00;94106.53;5030984;28;20180;-61
2022/04/19 08:22:12;;;;;;;5.23;3.93;;;;;;;5.18;100.00;94104.34;5032379;28;20214;-63
2022/04/19 08:24:38;;;;;;;5.10;3.10;;;;;;;5.66;100.00;94115.88;5032447;28;20620;-62
2022/04/19 08:27:04;;;;;;;5.33;3.23;;;;;;;5.52;100.00;94123.66;5030932;28;20220;-63
2022/04/19 08:29:30;;;;;;;4.83;3.67;;;;;;;5.91;100.00;94138.38;5032252;28;20721;-62
2022/04/19 08:31:55;;;;;;;3.93;3.40;;;;;;;6.31;100.00;94113.44;5031961;28;20217;-65
2022/04/19 08:34:21;;;;;;;4.90;3.77;;;;;;;6.58;100.00;94112.13;5032039;28;20173;-64
2022/04/19 08:36:47;;;;;;;3.83;3.27;;;;;;;6.65;100.00;94125.06;5032122;28;20222;-61
2022/04/19 08:39:13;;;;;;;3.13;2.67;;;;;;;6.76;100.00;94157.88;5031810;28;20274;-63
2022/04/19 08:41:42;;;;;;;6.77;3.27;;;;;;;6.93;100.00;94144.72;5030322;28;20694;-63
2022/04/19 08:44:08;;;;;;;3.13;2.70;;;;;;;6.42;100.00;94105.88;5031839;28;20181;-64
2022/04/19 08:46:37;;;;;;;3.63;3.13;;;;;;;6.24;100.00;94123.19;5031966;28;20198;-62
2022/04/19 08:49:04;;;;;;;3.23;2.50;;;;;;;6.47;100.00;94155.06;5030514;28;20213;-60
2022/04/19 08:51:34;;;;;;;2.50;2.20;;;;;;;6.87;100.00;94159.56;5030360;28;20210;-61
2022/04/19 08:59:30;;;;;;;3.27;2.40;;;;;;;7.39;97.69;94193.22;5032210;28;20181;-61
2022/04/19 09:01:56;;;;;;;2.50;2.30;;;;;;;7.28;100.00;94157.09;5031859;28;20277;-62
2022/04/19 09:04:25;;;;;;;2.73;2.47;;;;;;;6.96;97.45;94186.63;5031614;28;20177;-63
2022/04/19 09:06:55;;;;;;;2.17;2.07;;;;;;;6.95;90.77;94260.84;5031687;28;20216;-63
2022/04/19 09:09:23;;;;;;;2.53;2.20;;;;;;;7.33;89.37;94249.31;5031824;28;20177;-61
2022/04/19 09:11:49;;;;;;;3.20;2.27;;;;;;;7.42;87.89;94278.97;5031493;28;20757;-63
2022/04/19 09:14:25;;;;;;;4.03;1.97;;;;;;;7.75;86.45;94252.72;5031588;28;20640;-62
2022/04/19 09:17:08;;;;;;;2.93;2.20;;;;;;;7.75;86.71;94262.03;5038534;23;20213;-65
2022/04/19 09:19:33;;;;;;;4.27;2.40;;;;;;;7.69;89.22;94212.75;5031782;28;20174;-65
2022/04/19 09:22:00;;;;;;;6.70;2.10;;;;;;;7.89;86.04;94251.59;5031566;28;20213;-62
2022/04/19 09:24:26;;;;;;;3.70;2.60;;;;;;;7.86;82.84;94293.13;5031420;28;20178;-62
2022/04/19 09:26:52;;;;;;;5.30;2.97;;;;;;;7.27;84.48;94243.97;5031608;28;20198;-61
2022/04/19 09:29:26;;;;;;;3.20;2.83;;;;;;;6.81;87.21;94196.19;5031612;28;20659;-61
2022/04/19 09:31:58;;;;;;;3.70;3.23;;;;;;;7.07;88.46;94166.38;5029967;28;20358;-64
2022/04/19 09:34:34;;;;;;;4.77;3.80;;;;;;;7.42;90.31;94154.25;5030025;28;20641;-61
2022/04/19 09:37:12;;;;;;;5.53;2.63;;;;;;;6.94;88.79;94196.84;5031458;28;20206;-63
2022/04/19 09:39:42;;;;;;;6.90;3.37;;;;;;;6.88;91.29;94135.91;5029963;28;20220;-63
2022/04/19 09:42:10;;;;;;;4.50;3.30;;;;;;;6.55;90.84;94150.22;5031516;28;20209;-61
2022/04/19 09:44:50;;;;;;;3.53;3.23;;;;;;;7.72;90.21;94166.94;5029855;28;20189;-63
2022/04/19 09:47:15;;;;;;;3.90;3.37;;;;;;;8.64;89.07;94179.50;5031896;28;20757;-62
2022/04/19 09:49:52;;;;;;;4.37;3.07;;;;;;;9.74;82.90;94294.13;5031332;28;20186;-62
2022/04/19 09:52:22;;;;;;;4.33;2.93;;;;;;;8.90;76.20;94377.50;5031062;28;20225;-61
2022/04/19 09:55:05;;;;;;;2.73;2.53;;;;;;;9.57;76.47;94340.47;5033404;28;20248;-61
2022/04/19 09:57:32;;;;;;;6.80;3.13;;;;;;;9.04;75.10;94339.94;5033191;28;20748;-63
2022/04/19 09:59:59;;;;;;;3.03;2.73;;;;;;;9.21;70.26;94366.41;5034531;28;20257;-63
2022/04/19 10:08:14;;;;;;;6.30;3.00;;;;;;;10.81;67.48;94326.84;5035169;28;20682;-61
2022/04/19 10:10:41;;;;;;;3.43;2.97;;;;;;;10.73;68.64;94294.50;5034482;28;20175;-62
2022/04/19 10:13:08;;;;;;;3.70;3.30;;;;;;;10.51;69.55;94281.31;5034136;28;20663;-63
2022/04/19 10:15:35;;;;;;;3.07;2.77;;;;;;;10.04;69.30;94258.41;5034506;28;20190;-63
2022/04/19 10:18:02;;;;;;;4.33;3.43;;;;;;;10.50;69.82;94260.22;5033305;28;20272;-62
2022/04/19 10:20:33;;;;;;;4.80;3.20;;;;;;;10.30;67.45;94293.44;5034142;28;20254;-63
2022/04/19 10:23:03;;;;;;;5.13;3.30;;;;;;;10.93;62.06;94396.94;5041643;23;20322;-63
2022/04/19 10:25:45;;;;;;;3.97;2.30;;;;;;;11.98;59.02;94452.50;5034023;28;20185;-62
2022/04/19 10:28:30;;;;;;;5.63;3.00;;;;;;;11.84;55.11;94419.09;5034594;28;20209;-62
2022/04/19 10:30:58;;;;;;;2.80;2.60;;;;;;;13.06;55.89;94389.34;5033600;28;20186;-62
2022/04/19 10:33:39;;;;;;;3.40;3.10;;;;;;;13.57;55.13;94391.03;5034225;28;20206;-62
2022/04/19 10:36:11;;;;;;;3.97;2.37;;;;;;;11.84;48.04;94516.66;5032447;28;20607;-64
2022/04/19 10:38:37;;;;;;;4.53;2.70;;;;;;;11.38;47.10;94498.84;5034128;28;20224;-63
2022/04/19 10:41:03;;;;;;;2.53;2.33;;;;;;;11.67;49.21;94392.66;5033894;28;20205;-64
2022/04/19 10:43:29;;;;;;;6.67;2.70;;;;;;;10.17;51.18;94318.31;5033603;28;20205;-63
2022/04/19 10:46:14;;;;;;;4.60;3.03;;;;;;;9.93;57.05;94210.34;5033700;28;20175;-62
2022/04/19 10:49:18;;;;;;;4.67;3.80;;;;;;;10.35;63.30;94100.72;5032351;28;20178;-66
2022/04/19 10:51:43;;;;;;;5.43;3.67;;;;;;;10.85;62.04;94140.00;5033584;28;20213;-64
2022/04/19 10:54:09;;;;;;;4.07;3.67;;;;;;;11.46;63.96;94112.88;5033617;28;20178;-61
2022/04/19 10:57:12;;;;;;;3.30;3.00;;;;;;;10.85;58.89;94221.38;5033833;28;20206;-61
2022/04/19 10:59:38;;;;;;;3.97;3.30;;;;;;;10.50;57.88;94226.38;5032167;28;20182;-63
2022/04/19 11:02:36;;;;;;;3.67;2.77;;;;;;;10.41;59.05;94204.31;5032367;28;20749;-64
2022/04/19 11:05:03;;;;;;;3.80;3.03;;;;;;;10.18;55.82;94274.19;5006733;28;20584;-63
2022/04/19 11:07:42;;;;;;;3.30;3.00;;;;;;;8.91;58.09;94221.94;5033528;28;20214;-63
2022/04/19 11:10:07;;;;;;;3.53;2.43;;;;;;;8.48;56.85;94239.97;5033366;28;20189;-63
2022/04/19 11:13:00;;;;;;;2.23;1.80;;;;;;;9.27;52.31;94341.31;5033594;28;20215;-62
2022/04/19 11:15:41;;;;;;;2.30;2.10;;;;;;;9.07;55.71;94240.78;5033300;28;20198;-63
2022/04/19 11:18:24;;;;;;;2.50;1.80;;;;;;;9.75;52.55;94315.22;5031887;28;20800;-63
2022/04/19 11:20:51;;;;;;;2.27;1.70;;;;;;;10.49;51.41;94344.19;5031704;28;20186;-62
2022/04/19 11:23:21;;;;;;;4.07;1.97;;;;;;;10.15;48.98;94384.47;5031606;28;20299;-62
2022/04/19 11:25:49;;;;;;;4.60;1.70;;;;;;;10.62;48.83;94381.09;5033664;28;20167;-63
2022/04/19 11:28:19;;;;;;;3.17;1.80;;;;;;;10.28;45.55;94440.09;5033211;28;20203;-61
2022/04/19 11:30:57;;;;;;;2.10;1.90;;;;;;;9.82;46.25;94394.97;5032951;28;20174;-61
2022/04/19 11:33:27;;;;;;;3.17;1.83;;;;;;;9.84;44.19;94421.03;5032779;28;20217;-61
2022/04/19 11:36:07;;;;;;;2.70;1.40;;;;;;;10.62;45.87;94347.25;5032838;28;20254;-63
2022/04/19 11:38:40;;;;;;;2.03;1.67;;;;;;;10.98;44.20;94379.53;5033007;28;20671;-63
2022/04/19 11:46:44;;;;;;;2.10;1.90;;;;;;;10.61;45.24;94340.56;5032684;28;20687;-61
2022/04/19 11:49:11;;;;;;;1.67;1.53;;;;;;;10.39;43.71;94361.19;5032902;28;20631;-62
2022/04/19 11:51:37;;;;;;;1.77;1.50;;;;;;;11.22;42.25;94392.56;5032698;28;20202;-62
2022/04/19 11:54:05;;;;;;;2.67;1.90;;;;;;;12.14;40.83;94399.16;5032471;28;20288;-62
2022/04/19 11:56:31;;;;;;;3.20;1.63;;;;;;;12.04;41.23;94361.97;5032360;28;20202;-63
2022/04/19 11:59:01;;;;;;;2.27;1.80;;;;;;;12.10;40.92;94348.66;5032619;28;20175;-62
2022/04/19 12:01:28;;;;;;;2.90;2.10;;;;;;;12.39;40.28;94357.66;5032613;28;20187;-62
2022/04/19 12:03:54;;;;;;;1.50;1.40;;;;;;;10.88;38.02;94414.34;5030985;28;20191;-62
2022/04/19 12:06:21;;;;;;;1.17;1.07;;;;;;;10.13;39.23;94355.88;5032431;28;20178;-64
2022/04/19 12:08:56;;;;;;;1.40;1.30;;;;;;;8.94;41.64;94313.75;5032222;28;20174;-63
2022/04/19 12:11:27;;;;;;;1.57;1.47;;;;;;;8.58;45.79;94212.13;5032567;28;20190;-61
2022/04/19 12:13:53;;;;;;;3.57;1.80;;;;;;;8.14;50.06;94133.03;5031930;28;20286;-64